Terminal Aerodrome Forecast
Issued by NWS Wilmington, OH

Current Version | Previous Version | Graphics & Text | Print | Product List | Glossary On
Versions: 1 2 3 4 5 6 7 8 9 10 11 12 13 14 15 16 17 18 19 20 21 22 23 24 25 26
954
FTUS41 KILN 151237 AAA
TAFCVG
TAF AMD
KCVG 151237Z 1513/1618 21014G26KT P6SM BKN015 WS020/23040KT
     FM151500 22014G26KT P6SM VCSH OVC025
      TEMPO 1515/1519 5SM -SHRA BKN015
     FM151900 29014G24KT P6SM OVC035
     FM160100 32012KT P6SM BKN060
     FM160700 34004KT P6SM SCT060=

USA.gov is the U.S. government's official web portal to all federal, state and local government web resources and services.